createdAt,value
2023-06-23T00:00:24.932Z,99.90
2023-06-23T00:02:52.534Z,99.90
2023-06-23T00:05:19.604Z,99.90
2023-06-23T00:07:46.970Z,99.90
2023-06-23T00:10:15.702Z,99.90
2023-06-23T00:12:43.055Z,99.90
2023-06-23T00:15:11.222Z,99.90
2023-06-23T00:17:38.640Z,99.90
2023-06-23T00:20:11.393Z,99.90
2023-06-23T00:22:39.862Z,99.90
2023-06-23T00:25:07.228Z,99.90
2023-06-23T00:27:35.984Z,99.90
2023-06-23T00:30:03.608Z,99.90
2023-06-23T00:32:30.988Z,99.90
2023-06-23T00:34:57.848Z,99.90
2023-06-23T00:37:25.072Z,99.90
2023-06-23T00:39:51.909Z,99.90
2023-06-23T00:42:19.079Z,99.90
2023-06-23T00:44:47.376Z,99.90
2023-06-23T00:47:16.145Z,99.90
2023-06-23T00:49:43.502Z,99.90
2023-06-23T00:52:11.334Z,99.90
2023-06-23T00:54:38.744Z,99.90
2023-06-23T00:57:06.292Z,99.90
2023-06-23T00:59:33.486Z,99.90
2023-06-23T01:02:03.198Z,99.90
2023-06-23T01:04:34.014Z,99.90
2023-06-23T01:07:13.486Z,99.90
2023-06-23T01:09:51.591Z,99.90
2023-06-23T01:12:27.852Z,99.90
2023-06-23T01:15:03.238Z,99.90
2023-06-23T01:17:38.240Z,99.90
2023-06-23T01:20:23.443Z,99.90
2023-06-23T01:23:19.478Z,99.90
2023-06-23T01:25:55.805Z,99.90
2023-06-23T01:28:43.603Z,99.90
2023-06-23T01:31:15.039Z,99.90
2023-06-23T01:33:46.194Z,99.90
2023-06-23T01:36:16.073Z,99.90
2023-06-23T01:38:48.799Z,99.90
2023-06-23T01:41:25.173Z,99.90
2023-06-23T01:43:57.320Z,99.90
2023-06-23T01:46:28.265Z,99.90
2023-06-23T01:48:59.219Z,99.90
2023-06-23T01:51:27.974Z,99.90
2023-06-23T01:53:55.572Z,99.90
2023-06-23T01:56:25.342Z,99.90
2023-06-23T01:58:54.690Z,99.90
2023-06-23T02:01:24.428Z,99.90
2023-06-23T02:03:52.224Z,99.90
2023-06-23T02:06:21.239Z,99.90
2023-06-23T02:08:49.359Z,99.90
2023-06-23T02:11:18.347Z,99.90
2023-06-23T02:13:47.313Z,99.90
2023-06-23T02:16:16.293Z,99.90
2023-06-23T02:18:43.944Z,99.90
2023-06-23T02:21:12.992Z,99.90
2023-06-23T02:23:40.307Z,99.90
2023-06-23T02:26:10.418Z,99.90
2023-06-23T02:28:38.195Z,99.90
2023-06-23T02:31:07.498Z,99.90
2023-06-23T02:33:35.957Z,99.90
2023-06-23T02:36:06.183Z,99.90
2023-06-23T02:38:37.943Z,99.90
2023-06-23T02:41:09.013Z,99.90
2023-06-23T02:43:41.675Z,99.90
2023-06-23T02:46:13.149Z,99.90
2023-06-23T02:48:43.410Z,99.90
2023-06-23T02:51:15.817Z,99.90
2023-06-23T02:53:47.197Z,99.90
2023-06-23T02:56:18.512Z,99.90
2023-06-23T02:58:48.340Z,99.90
2023-06-23T03:01:17.548Z,99.90
2023-06-23T03:03:46.443Z,99.90
2023-06-23T03:06:20.329Z,99.90
2023-06-23T03:08:48.633Z,99.90
2023-06-23T03:11:17.090Z,99.90
2023-06-23T03:13:44.964Z,99.90
2023-06-23T03:16:18.788Z,99.90
2023-06-23T03:18:53.450Z,99.90
2023-06-23T03:21:23.337Z,99.90
2023-06-23T03:23:52.331Z,99.90
2023-06-23T03:26:22.133Z,99.90
2023-06-23T03:28:53.049Z,99.90
2023-06-23T03:31:20.873Z,99.90
2023-06-23T03:33:49.995Z,99.90
2023-06-23T03:36:22.337Z,99.90
2023-06-23T03:38:56.376Z,99.90
2023-06-23T03:41:23.975Z,99.90
2023-06-23T03:43:53.976Z,99.90
2023-06-23T03:46:26.396Z,99.90
2023-06-23T03:48:59.420Z,99.90
2023-06-23T03:51:29.231Z,99.90
2023-06-23T03:54:00.369Z,99.90
2023-06-23T03:56:29.905Z,99.90
2023-06-23T03:58:59.262Z,99.90
2023-06-23T04:01:29.408Z,99.90
2023-06-23T04:03:58.861Z,99.90
2023-06-23T04:06:27.628Z,99.90
2023-06-23T04:08:56.811Z,99.90
2023-06-23T04:11:25.520Z,99.90
2023-06-23T04:13:56.627Z,99.90
2023-06-23T04:16:24.819Z,99.90
2023-06-23T04:18:53.759Z,99.90
2023-06-23T04:21:23.875Z,99.90
2023-06-23T04:23:52.854Z,99.90
2023-06-23T04:26:20.150Z,99.90
2023-06-23T04:28:49.153Z,99.90
2023-06-23T04:31:18.593Z,99.90
2023-06-23T04:33:45.612Z,99.90
2023-06-23T04:36:16.450Z,99.90
2023-06-23T04:38:51.470Z,99.90
2023-06-23T04:41:21.752Z,99.90
2023-06-23T04:43:53.939Z,99.90
2023-06-23T04:46:24.488Z,99.90
2023-06-23T04:48:54.396Z,99.90
2023-06-23T04:51:25.745Z,99.90
2023-06-23T04:54:01.369Z,99.90
2023-06-23T04:56:33.895Z,99.90
2023-06-23T04:59:04.940Z,99.90
2023-06-23T05:01:34.331Z,99.90
2023-06-23T05:04:03.045Z,99.90
2023-06-23T05:06:32.794Z,99.90
2023-06-23T05:09:01.407Z,99.90
2023-06-23T05:11:29.277Z,99.90
2023-06-23T05:13:57.777Z,99.90
2023-06-23T05:16:26.070Z,99.90
2023-06-23T05:18:55.529Z,99.90
2023-06-23T05:21:25.051Z,99.90
2023-06-23T05:23:54.358Z,99.90
2023-06-23T05:26:26.112Z,99.90
2023-06-23T05:28:55.671Z,99.90
2023-06-23T05:31:25.237Z,99.90
2023-06-23T05:33:53.013Z,99.90
2023-06-23T05:36:22.638Z,99.90
2023-06-23T05:38:51.866Z,99.90
2023-06-23T05:41:18.877Z,99.90
2023-06-23T05:43:47.219Z,99.90
2023-06-23T05:46:16.479Z,99.90
2023-06-23T05:48:47.980Z,99.90
2023-06-23T05:51:18.753Z,99.90
2023-06-23T05:53:50.520Z,99.90
2023-06-23T05:56:23.176Z,99.90
2023-06-23T05:58:57.289Z,99.90
2023-06-23T06:01:25.828Z,99.90
2023-06-23T06:04:00.276Z,99.90
2023-06-23T06:06:29.106Z,99.90
2023-06-23T06:08:58.492Z,99.90
2023-06-23T06:11:28.111Z,99.90
2023-06-23T06:13:58.857Z,99.90
2023-06-23T06:16:26.719Z,99.90
2023-06-23T06:18:55.770Z,99.90
2023-06-23T06:21:24.687Z,99.90
2023-06-23T06:23:53.926Z,99.90
2023-06-23T06:26:22.321Z,99.90
2023-06-23T06:28:51.651Z,99.90
2023-06-23T06:31:20.942Z,99.90
2023-06-23T06:33:51.390Z,99.90
2023-06-23T06:36:20.903Z,99.90
2023-06-23T06:38:51.154Z,99.90
2023-06-23T06:41:19.061Z,99.90
2023-06-23T06:43:46.039Z,99.90
2023-06-23T06:46:14.653Z,99.90
2023-06-23T06:48:46.987Z,99.90
2023-06-23T06:51:15.874Z,99.90
2023-06-23T06:53:42.978Z,99.90
2023-06-23T06:56:10.904Z,99.90
2023-06-23T06:58:38.137Z,99.90
2023-06-23T07:01:06.253Z,99.90
2023-06-23T07:03:35.369Z,99.90
2023-06-23T07:06:04.136Z,99.90
2023-06-23T07:08:31.263Z,99.90
2023-06-23T07:10:58.501Z,99.90
2023-06-23T07:13:25.399Z,99.90
2023-06-23T07:15:52.791Z,99.90
2023-06-23T07:18:20.292Z,99.90
2023-06-23T07:20:47.325Z,99.90
2023-06-23T07:23:15.694Z,99.90
2023-06-23T07:25:42.589Z,99.90
2023-06-23T07:28:09.877Z,99.90
2023-06-23T07:30:39.140Z,99.90
2023-06-23T07:33:06.214Z,99.90
2023-06-23T07:35:33.544Z,99.90
2023-06-23T07:38:01.102Z,99.90
2023-06-23T07:40:30.184Z,99.90
2023-06-23T07:42:58.034Z,99.90
2023-06-23T07:45:25.338Z,99.90
2023-06-23T07:47:52.378Z,99.90
2023-06-23T07:50:19.666Z,99.90
2023-06-23T07:52:53.844Z,99.90
2023-06-23T07:55:22.073Z,99.90
2023-06-23T07:57:50.855Z,99.90
2023-06-23T08:00:18.523Z,99.90
2023-06-23T08:02:46.262Z,99.90
2023-06-23T08:05:13.383Z,99.90
2023-06-23T08:07:41.749Z,99.90
2023-06-23T08:10:09.404Z,99.90
2023-06-23T08:12:37.340Z,99.90
2023-06-23T08:15:07.142Z,99.90
2023-06-23T08:17:34.146Z,99.90
2023-06-23T08:20:01.169Z,99.90
2023-06-23T08:22:28.442Z,99.90
2023-06-23T08:24:55.306Z,99.90
2023-06-23T08:27:22.489Z,99.90
2023-06-23T08:29:49.437Z,99.90
2023-06-23T08:32:18.116Z,99.90
2023-06-23T08:34:45.017Z,99.90
2023-06-23T08:37:12.224Z,99.90
2023-06-23T08:39:39.118Z,99.90
2023-06-23T08:42:07.716Z,99.90
2023-06-23T08:44:37.557Z,99.90
2023-06-23T08:47:08.334Z,99.90
2023-06-23T08:49:40.725Z,99.90
2023-06-23T08:52:09.477Z,99.90
2023-06-23T08:54:36.770Z,99.90
2023-06-23T08:57:05.409Z,99.90
2023-06-23T08:59:32.405Z,99.90
2023-06-23T09:01:59.859Z,99.90
2023-06-23T09:04:27.026Z,99.90
2023-06-23T09:06:55.490Z,99.90
2023-06-23T09:09:22.825Z,99.90
2023-06-23T09:11:50.703Z,99.90
2023-06-23T09:14:18.807Z,99.90
2023-06-23T09:16:46.815Z,99.90
2023-06-23T09:19:17.064Z,99.90
2023-06-23T09:21:45.145Z,99.90
2023-06-23T09:24:13.639Z,99.90
2023-06-23T09:26:49.549Z,99.90
2023-06-23T09:29:19.585Z,99.90
2023-06-23T09:31:48.598Z,99.90
2023-06-23T09:34:23.045Z,99.90
2023-06-23T09:36:50.983Z,99.90
2023-06-23T09:39:19.737Z,99.90
2023-06-23T09:41:53.033Z,99.90
2023-06-23T09:44:20.487Z,99.90
2023-06-23T09:46:47.783Z,99.90
2023-06-23T09:49:14.835Z,99.90
2023-06-23T09:51:47.313Z,99.90
2023-06-23T09:54:14.274Z,99.90
2023-06-23T09:56:42.906Z,99.90
2023-06-23T09:59:09.773Z,99.90
2023-06-23T10:01:38.719Z,99.90
2023-06-23T10:04:06.436Z,99.90
2023-06-23T10:06:38.619Z,99.90
2023-06-23T10:09:08.544Z,99.90
2023-06-23T10:11:37.719Z,99.90
2023-06-23T10:14:08.370Z,99.90
2023-06-23T10:16:36.950Z,99.90
2023-06-23T10:19:05.021Z,99.90
2023-06-23T10:21:33.207Z,99.90
2023-06-23T10:24:03.687Z,99.90
2023-06-23T10:26:33.098Z,99.90
2023-06-23T10:29:02.431Z,99.90
2023-06-23T10:31:32.829Z,99.90
2023-06-23T10:34:02.144Z,99.90
2023-06-23T10:36:32.380Z,99.90
2023-06-23T10:39:02.830Z,99.90
2023-06-23T10:41:31.382Z,99.90
2023-06-23T10:43:59.458Z,99.90
2023-06-23T10:46:27.038Z,99.90
2023-06-23T10:48:55.887Z,99.90
2023-06-23T10:51:25.206Z,99.90
2023-06-23T10:54:01.632Z,99.90
2023-06-23T10:56:33.585Z,99.90
2023-06-23T10:59:00.886Z,99.90
2023-06-23T11:01:28.638Z,99.90
2023-06-23T11:04:02.721Z,99.90
2023-06-23T11:06:36.805Z,99.90
2023-06-23T11:09:03.993Z,99.90
2023-06-23T11:11:33.069Z,99.90
2023-06-23T11:14:00.723Z,99.90
2023-06-23T11:16:30.256Z,99.90
2023-06-23T11:19:01.317Z,99.90
2023-06-23T11:21:34.054Z,99.90
2023-06-23T11:24:12.331Z,99.90
2023-06-23T11:26:51.821Z,99.90
2023-06-23T11:29:20.539Z,99.90
2023-06-23T11:32:09.332Z,99.90
2023-06-23T11:34:59.107Z,99.90
2023-06-23T11:37:27.946Z,99.90
2023-06-23T11:39:55.720Z,99.90
2023-06-23T11:42:23.930Z,99.90
2023-06-23T11:44:51.288Z,99.90
2023-06-23T11:47:24.923Z,99.90
2023-06-23T11:49:52.833Z,99.90
2023-06-23T11:52:21.862Z,99.90
2023-06-23T11:54:49.504Z,99.90
2023-06-23T11:57:19.580Z,99.90
2023-06-23T11:59:46.691Z,99.90
2023-06-23T12:02:14.104Z,99.90
2023-06-23T12:04:42.428Z,99.90
2023-06-23T12:07:11.978Z,99.90
2023-06-23T12:09:43.393Z,99.90
2023-06-23T12:12:15.701Z,99.90
2023-06-23T12:14:44.803Z,99.90
2023-06-23T12:17:13.714Z,99.90
2023-06-23T12:19:42.858Z,99.90
2023-06-23T12:22:16.879Z,99.90
2023-06-23T12:24:45.573Z,99.90
2023-06-23T12:27:12.834Z,99.90
2023-06-23T12:29:39.913Z,99.90
2023-06-23T12:32:07.807Z,99.90
2023-06-23T12:34:35.928Z,99.90
2023-06-23T12:37:04.726Z,99.90
2023-06-23T12:39:32.198Z,99.90
2023-06-23T12:42:02.202Z,99.90
2023-06-23T12:44:31.337Z,99.90
2023-06-23T12:46:59.602Z,99.90
2023-06-23T12:49:32.272Z,99.90
2023-06-23T12:52:01.974Z,99.90
2023-06-23T12:54:29.354Z,99.90
2023-06-23T12:57:02.939Z,99.90
2023-06-23T12:59:30.206Z,99.90
2023-06-23T13:01:57.780Z,99.90
2023-06-23T13:04:24.878Z,99.90
2023-06-23T13:06:52.774Z,99.90
2023-06-23T13:09:20.030Z,99.90
2023-06-23T13:11:47.524Z,99.90
2023-06-23T13:14:15.802Z,99.90
2023-06-23T13:16:44.712Z,99.90
2023-06-23T13:19:12.889Z,99.90
2023-06-23T13:21:44.855Z,99.90
2023-06-23T13:24:11.969Z,99.90
2023-06-23T13:26:39.196Z,99.90
2023-06-23T13:29:06.228Z,99.90
2023-06-23T13:31:34.705Z,99.90
2023-06-23T13:34:01.963Z,99.90
2023-06-23T13:36:29.371Z,99.90
2023-06-23T13:38:56.615Z,99.90
2023-06-23T13:41:23.513Z,99.90
2023-06-23T13:43:50.341Z,99.90
2023-06-23T13:46:17.899Z,99.90
2023-06-23T13:48:46.072Z,99.90
2023-06-23T13:51:13.298Z,99.90
2023-06-23T13:53:40.176Z,99.90
2023-06-23T13:56:07.631Z,99.90
2023-06-23T13:58:34.826Z,99.90
2023-06-23T14:01:01.715Z,99.90
2023-06-23T14:03:28.718Z,99.90
2023-06-23T14:05:58.160Z,99.90
2023-06-23T14:08:25.572Z,99.90
2023-06-23T14:10:52.813Z,99.90
2023-06-23T14:13:19.728Z,99.90
2023-06-23T14:15:46.921Z,99.90
2023-06-23T14:18:14.011Z,99.90
2023-06-23T14:20:41.232Z,99.90
2023-06-23T14:23:09.407Z,99.90
2023-06-23T14:25:36.624Z,99.90
2023-06-23T14:28:03.685Z,99.90
2023-06-23T14:30:31.438Z,99.90
2023-06-23T14:33:03.257Z,99.90
2023-06-23T14:35:30.420Z,99.90
2023-06-23T14:37:57.387Z,99.90
2023-06-23T14:40:25.659Z,99.90
2023-06-23T14:42:52.583Z,99.90
2023-06-23T14:45:19.558Z,99.90
2023-06-23T14:47:46.525Z,99.90
2023-06-23T14:50:14.095Z,99.90
2023-06-23T14:52:41.066Z,99.90
2023-06-23T14:55:08.914Z,99.90
2023-06-23T14:57:37.122Z,99.90
2023-06-23T15:00:05.368Z,99.90
2023-06-23T15:02:32.384Z,99.90
2023-06-23T15:04:59.561Z,99.90
2023-06-23T15:07:26.489Z,99.90
2023-06-23T15:09:53.916Z,99.90
2023-06-23T15:12:20.783Z,99.90
2023-06-23T15:14:49.395Z,99.90
2023-06-23T15:17:16.873Z,99.90
2023-06-23T15:19:44.832Z,99.90
2023-06-23T15:22:11.804Z,99.90
2023-06-23T15:24:39.407Z,99.90
2023-06-23T15:27:06.800Z,99.90
2023-06-23T15:29:34.317Z,99.90
2023-06-23T15:32:03.260Z,99.90
2023-06-23T15:34:32.833Z,99.90
2023-06-23T15:36:59.750Z,99.90
2023-06-23T15:39:30.427Z,99.90
2023-06-23T15:41:57.442Z,99.90
2023-06-23T15:44:25.411Z,99.90
2023-06-23T15:46:52.731Z,99.90
2023-06-23T15:49:21.074Z,99.90
2023-06-23T15:51:47.933Z,99.90
2023-06-23T15:54:15.168Z,99.90
2023-06-23T15:56:43.046Z,99.90
2023-06-23T15:59:10.730Z,99.90
2023-06-23T16:01:37.680Z,99.90
2023-06-23T16:04:05.452Z,99.90
2023-06-23T16:06:34.172Z,99.90
2023-06-23T16:09:01.131Z,99.90
2023-06-23T16:11:28.384Z,99.90
2023-06-23T16:13:55.478Z,99.90
2023-06-23T16:16:22.332Z,99.90
2023-06-23T16:18:49.297Z,99.90
2023-06-23T16:21:16.129Z,99.90
2023-06-23T16:23:44.672Z,99.90
2023-06-23T16:26:14.286Z,99.90
2023-06-23T16:28:41.446Z,99.90
2023-06-23T16:31:08.439Z,20.80
2023-06-23T16:33:36.801Z,1.00
2023-06-23T16:36:04.304Z,1.00
2023-06-23T16:38:31.561Z,1.00
2023-06-23T16:40:59.847Z,1.00
2023-06-23T16:43:27.127Z,1.00
2023-06-23T16:45:53.966Z,1.00
2023-06-23T16:48:21.124Z,1.00
2023-06-23T16:50:48.016Z,1.00
2023-06-23T16:53:14.863Z,1.00
2023-06-23T16:55:41.805Z,1.00
2023-06-23T16:58:09.990Z,1.00
2023-06-23T17:00:37.122Z,1.00
2023-06-23T17:03:04.550Z,1.00
2023-06-23T17:05:31.987Z,1.00
2023-06-23T17:07:59.714Z,1.00
2023-06-23T17:10:26.563Z,1.00
2023-06-23T17:12:53.795Z,1.00
2023-06-23T17:15:22.238Z,1.00
2023-06-23T17:17:49.153Z,1.00
2023-06-23T17:20:16.640Z,1.00
2023-06-23T17:22:43.646Z,1.00
2023-06-23T17:25:10.601Z,1.00
2023-06-23T17:27:38.169Z,1.00
2023-06-23T17:30:07.111Z,1.00
2023-06-23T17:32:35.986Z,1.00
2023-06-23T17:35:03.207Z,1.00
2023-06-23T17:37:30.191Z,1.00
2023-06-23T17:39:57.482Z,1.00
2023-06-23T17:42:24.370Z,1.00
2023-06-23T17:44:51.627Z,1.00
2023-06-23T17:47:18.535Z,1.00
2023-06-23T17:49:47.463Z,1.00
2023-06-23T17:52:14.583Z,1.00
2023-06-23T17:54:41.853Z,1.00
2023-06-23T17:57:09.954Z,1.00
2023-06-23T17:59:37.471Z,1.00
2023-06-23T18:02:05.451Z,1.00
2023-06-23T18:04:33.129Z,1.00
2023-06-23T18:07:01.459Z,6.90
2023-06-23T18:09:28.537Z,5.70
2023-06-23T18:11:55.649Z,7.10
2023-06-23T18:14:22.611Z,9.40
2023-06-23T18:16:49.779Z,19.90
2023-06-23T18:19:19.312Z,22.10
2023-06-23T18:21:46.684Z,37.40
2023-06-23T18:24:14.928Z,48.00
2023-06-23T18:26:42.367Z,69.20
2023-06-23T18:29:09.290Z,89.00
2023-06-23T18:31:36.603Z,99.90
2023-06-23T18:34:03.635Z,99.90
2023-06-23T18:36:30.863Z,99.90
2023-06-23T18:38:57.715Z,99.90
2023-06-23T18:41:26.089Z,99.90
2023-06-23T18:43:53.410Z,99.90
2023-06-23T18:46:20.340Z,99.90
2023-06-23T18:48:47.710Z,99.90
2023-06-23T18:51:14.888Z,99.90
2023-06-23T18:53:42.158Z,99.90
2023-06-23T18:56:09.044Z,99.90
2023-06-23T18:58:37.834Z,99.90
2023-06-23T19:01:04.751Z,99.90
2023-06-23T19:03:33.784Z,99.90
2023-06-23T19:06:00.887Z,99.90
2023-06-23T19:08:28.235Z,99.90
2023-06-23T19:10:55.187Z,99.90
2023-06-23T19:13:22.455Z,99.90
2023-06-23T19:15:50.722Z,99.90
2023-06-23T19:18:18.198Z,99.90
2023-06-23T19:20:45.127Z,99.90
2023-06-23T19:23:12.794Z,99.90
2023-06-23T19:25:39.679Z,99.90
2023-06-23T19:28:06.928Z,99.90
2023-06-23T19:30:35.925Z,99.90
2023-06-23T19:33:06.106Z,99.90
2023-06-23T19:35:33.030Z,99.90
2023-06-23T19:38:00.111Z,99.90
2023-06-23T19:40:27.161Z,99.90
2023-06-23T19:42:54.194Z,99.90
2023-06-23T19:45:21.090Z,99.90
2023-06-23T19:47:48.851Z,99.90
2023-06-23T19:50:19.330Z,99.90
2023-06-23T19:52:46.529Z,99.90
2023-06-23T19:55:14.127Z,99.90
2023-06-23T19:57:41.125Z,99.90
2023-06-23T20:00:10.121Z,99.90
2023-06-23T20:02:37.448Z,99.90
2023-06-23T20:05:05.175Z,99.90
2023-06-23T20:07:33.848Z,99.90
2023-06-23T20:10:00.796Z,99.90
2023-06-23T20:12:27.986Z,99.90
2023-06-23T20:14:54.912Z,99.90
2023-06-23T20:17:22.117Z,99.90
2023-06-23T20:19:49.448Z,99.90
2023-06-23T20:22:16.534Z,99.90
2023-06-23T20:24:44.909Z,99.90
2023-06-23T20:27:12.144Z,99.90
2023-06-23T20:29:39.967Z,99.90
2023-06-23T20:32:08.512Z,99.90
2023-06-23T20:34:35.456Z,99.90
2023-06-23T20:37:02.914Z,99.90
2023-06-23T20:39:32.222Z,99.90
2023-06-23T20:42:01.155Z,99.90
2023-06-23T20:44:28.215Z,99.90
2023-06-23T20:46:55.575Z,99.90
2023-06-23T20:49:24.523Z,99.90
2023-06-23T20:51:51.756Z,99.90
2023-06-23T20:54:18.653Z,99.90
2023-06-23T20:56:45.640Z,99.90
2023-06-23T20:59:13.935Z,99.90
2023-06-23T21:01:41.517Z,99.90
2023-06-23T21:04:08.689Z,99.90
2023-06-23T21:06:36.261Z,99.90
2023-06-23T21:09:03.498Z,99.90
2023-06-23T21:11:30.783Z,99.90
2023-06-23T21:13:57.706Z,99.90
2023-06-23T21:16:25.967Z,99.90
2023-06-23T21:18:53.972Z,99.90
2023-06-23T21:21:21.197Z,99.90
2023-06-23T21:23:48.680Z,99.90
2023-06-23T21:26:15.992Z,99.90
2023-06-23T21:28:43.160Z,82.90
2023-06-23T21:31:10.710Z,69.00
2023-06-23T21:33:38.963Z,46.80
2023-06-23T21:36:06.149Z,17.00
2023-06-23T21:38:33.138Z,22.60
2023-06-23T21:41:00.585Z,16.30
2023-06-23T21:43:27.550Z,18.50
2023-06-23T21:45:54.529Z,16.90
2023-06-23T21:48:23.591Z,17.50
2023-06-23T21:50:52.313Z,22.40
2023-06-23T21:53:19.339Z,23.50
2023-06-23T21:55:46.309Z,26.00
2023-06-23T21:58:13.221Z,26.80
2023-06-23T22:00:40.588Z,24.30
2023-06-23T22:03:07.600Z,27.60
2023-06-23T22:05:34.831Z,32.50
2023-06-23T22:08:03.038Z,34.30
2023-06-23T22:10:30.260Z,37.40
2023-06-23T22:12:58.983Z,42.60
2023-06-23T22:15:25.961Z,46.60
2023-06-23T22:17:53.298Z,52.00
2023-06-23T22:20:22.932Z,62.30
2023-06-23T22:22:50.553Z,65.80
2023-06-23T22:25:18.827Z,77.50
2023-06-23T22:27:46.068Z,77.30
2023-06-23T22:30:13.489Z,86.20
2023-06-23T22:32:40.919Z,96.90
2023-06-23T22:35:09.601Z,99.90
2023-06-23T22:37:37.106Z,99.90
2023-06-23T22:40:05.119Z,99.90
2023-06-23T22:42:33.911Z,99.90
2023-06-23T22:45:02.294Z,99.90
2023-06-23T22:47:30.659Z,99.90
2023-06-23T22:49:57.489Z,99.90
2023-06-23T22:52:27.974Z,99.90
2023-06-23T22:54:55.224Z,99.90
2023-06-23T22:57:23.044Z,99.90
2023-06-23T22:59:51.204Z,99.90
2023-06-23T23:02:18.494Z,99.90
2023-06-23T23:04:45.627Z,99.90
2023-06-23T23:07:12.964Z,99.90
2023-06-23T23:09:39.909Z,99.90
2023-06-23T23:12:08.196Z,99.90
2023-06-23T23:14:35.120Z,99.90
2023-06-23T23:17:04.567Z,99.90
2023-06-23T23:19:31.437Z,99.90
2023-06-23T23:21:58.843Z,99.90
2023-06-23T23:24:25.745Z,99.90
2023-06-23T23:26:53.658Z,99.90
2023-06-23T23:29:24.736Z,99.90
2023-06-23T23:31:52.066Z,99.90
2023-06-23T23:34:20.434Z,99.90
2023-06-23T23:36:49.815Z,99.90
2023-06-23T23:39:17.149Z,99.90
2023-06-23T23:41:44.052Z,99.90
2023-06-23T23:44:11.642Z,99.90
2023-06-23T23:46:38.999Z,99.90
2023-06-23T23:49:06.025Z,99.90
2023-06-23T23:51:34.233Z,99.90
2023-06-23T23:54:01.517Z,99.90
2023-06-23T23:56:28.464Z,99.90
2023-06-23T23:58:55.759Z,99.90
